createdAt,value
2018-07-16T00:00:16.274Z,79.4
2018-07-16T00:01:16.380Z,79.4
2018-07-16T00:02:16.657Z,79.6
2018-07-16T00:03:16.911Z,80.0
2018-07-16T00:04:17.185Z,80.1
2018-07-16T00:05:16.460Z,79.5
2018-07-16T00:06:16.716Z,79.6
2018-07-16T00:07:17.058Z,79.7
2018-07-16T00:08:16.355Z,79.2
2018-07-16T00:09:16.705Z,79.5
2018-07-16T00:10:16.986Z,79.6
2018-07-16T00:11:17.050Z,79.6
2018-07-16T00:12:16.320Z,79.3
2018-07-16T00:13:16.583Z,79.4
2018-07-16T00:14:16.848Z,79.6
2018-07-16T00:15:17.112Z,80.0
2018-07-16T00:16:16.359Z,79.7
2018-07-16T00:17:16.618Z,80.1
2018-07-16T00:18:16.875Z,80.0
2018-07-16T00:19:17.147Z,80.0
2018-07-16T00:20:16.416Z,80.1
2018-07-16T00:21:16.462Z,80.2
2018-07-16T00:22:16.724Z,80.3
2018-07-16T00:23:16.981Z,80.4
2018-07-16T00:24:17.252Z,80.5
2018-07-16T00:25:16.529Z,80.6
2018-07-16T00:26:16.801Z,80.6
2018-07-16T00:27:17.064Z,80.4
2018-07-16T00:28:16.321Z,80.2
2018-07-16T00:29:16.584Z,80.3
2018-07-16T00:30:16.849Z,80.1
2018-07-16T00:31:16.884Z,79.8
2018-07-16T00:32:17.144Z,79.6
2018-07-16T00:33:16.405Z,80.0
2018-07-16T00:34:16.663Z,80.1
2018-07-16T00:35:16.918Z,80.1
2018-07-16T00:36:17.496Z,80.2
2018-07-16T00:37:16.757Z,80.3
2018-07-16T00:38:17.015Z,80.4
2018-07-16T00:39:16.277Z,80.4
2018-07-16T00:40:16.558Z,80.6
2018-07-16T00:41:16.592Z,80.5
2018-07-16T00:42:17.132Z,80.5
2018-07-16T00:43:16.395Z,80.5
2018-07-16T00:44:16.731Z,80.4
2018-07-16T00:45:17.013Z,80.6
2018-07-16T00:46:16.271Z,80.4
2018-07-16T00:47:16.544Z,80.5
2018-07-16T00:48:16.800Z,80.6
2018-07-16T00:49:17.066Z,80.6
2018-07-16T00:50:16.332Z,80.4
2018-07-16T00:51:16.374Z,79.9
2018-07-16T00:52:16.633Z,79.8
2018-07-16T00:53:16.892Z,79.8
2018-07-16T00:54:17.126Z,79.9
2018-07-16T00:55:16.390Z,79.6
2018-07-16T00:56:16.680Z,79.3
2018-07-16T00:57:16.945Z,79.6
2018-07-16T00:58:17.209Z,79.9
2018-07-16T00:59:16.475Z,80.1
2018-07-16T01:00:16.745Z,79.7
2018-07-16T01:01:16.786Z,79.8
2018-07-16T01:02:17.061Z,80.3
2018-07-16T01:03:16.318Z,80.3
2018-07-16T01:04:16.568Z,80.4
2018-07-16T01:05:16.824Z,80.1
2018-07-16T01:06:17.088Z,80.1
2018-07-16T01:07:16.352Z,80.1
2018-07-16T01:08:16.609Z,80.2
2018-07-16T01:09:16.866Z,80.4
2018-07-16T01:10:17.125Z,80.5
2018-07-16T01:11:17.180Z,80.1
2018-07-16T01:12:16.433Z,79.9
2018-07-16T01:13:16.701Z,79.3
2018-07-16T01:14:16.957Z,79.7
2018-07-16T01:15:17.220Z,79.6
2018-07-16T01:16:16.485Z,79.4
2018-07-16T01:17:16.745Z,79.5
2018-07-16T01:18:16.996Z,79.5
2018-07-16T01:19:16.263Z,79.4
2018-07-16T01:20:16.543Z,79.4
2018-07-16T01:21:16.618Z,79.4
2018-07-16T01:22:16.882Z,79.4
2018-07-16T01:23:17.138Z,79.4
2018-07-16T01:24:16.403Z,79.6
2018-07-16T01:25:16.671Z,79.4
2018-07-16T01:26:16.935Z,79.5
2018-07-16T01:27:17.224Z,79.6
2018-07-16T01:28:16.492Z,79.4
2018-07-16T01:29:16.762Z,79.4
2018-07-16T01:30:17.042Z,79.4
2018-07-16T01:31:17.075Z,79.4
2018-07-16T01:32:16.335Z,79.3
2018-07-16T01:33:16.592Z,79.0
2018-07-16T01:34:16.872Z,79.0
2018-07-16T01:35:17.134Z,79.1
2018-07-16T01:36:16.404Z,79.2
2018-07-16T01:37:16.656Z,79.4
2018-07-16T01:38:16.912Z,79.4
2018-07-16T01:39:17.184Z,79.8
2018-07-16T01:40:16.451Z,79.8
2018-07-16T01:41:16.500Z,79.9
2018-07-16T01:42:16.815Z,79.7
2018-07-16T01:43:17.085Z,79.4
2018-07-16T01:44:16.338Z,79.6
2018-07-16T01:45:16.607Z,79.9
2018-07-16T01:46:16.870Z,80.1
2018-07-16T01:47:17.495Z,80.2
2018-07-16T01:48:16.747Z,80.6
2018-07-16T01:49:17.016Z,80.8
2018-07-16T01:50:16.295Z,80.8
2018-07-16T01:51:16.320Z,80.5
2018-07-16T01:52:16.579Z,80.4
2018-07-16T01:53:16.835Z,80.5
2018-07-16T01:54:17.107Z,80.6
2018-07-16T01:55:16.375Z,80.4
2018-07-16T01:56:16.643Z,80.8
2018-07-16T01:57:16.919Z,80.9
2018-07-16T01:58:17.183Z,81.2
2018-07-16T01:59:16.460Z,80.9
2018-07-16T02:00:16.750Z,81.2
2018-07-16T02:01:16.776Z,81.2
2018-07-16T02:02:17.035Z,81.1
2018-07-16T02:03:16.303Z,81.1
2018-07-16T02:04:16.557Z,81.1
2018-07-16T02:05:16.846Z,80.9
2018-07-16T02:06:17.110Z,81.3
2018-07-16T02:07:16.386Z,81.1
2018-07-16T02:08:16.643Z,80.8
2018-07-16T02:09:16.908Z,80.8
2018-07-16T02:10:17.174Z,80.9
2018-07-16T02:11:17.221Z,81.2
2018-07-16T02:12:16.489Z,79.7
2018-07-16T02:13:16.744Z,80.2
2018-07-16T02:14:17.001Z,80.3
2018-07-16T02:15:16.258Z,79.6
2018-07-16T02:16:16.512Z,79.7
2018-07-16T02:17:16.770Z,80.0
2018-07-16T02:18:17.026Z,80.3
2018-07-16T02:19:16.295Z,80.1
2018-07-16T02:20:16.572Z,80.2
2018-07-16T02:21:16.627Z,80.4
2018-07-16T02:22:16.416Z,80.0
2018-07-16T02:23:16.683Z,80.0
2018-07-16T02:24:16.951Z,80.0
2018-07-16T02:25:17.214Z,79.8
2018-07-16T02:26:16.479Z,79.9
2018-07-16T02:27:16.746Z,79.9
2018-07-16T02:28:17.022Z,79.1
2018-07-16T02:29:16.276Z,79.4
2018-07-16T02:30:16.547Z,79.8
2018-07-16T02:31:16.597Z,79.7
2018-07-16T02:32:16.869Z,79.7
2018-07-16T02:33:17.159Z,79.4
2018-07-16T02:34:16.424Z,79.6
2018-07-16T02:35:16.702Z,79.5
2018-07-16T02:36:16.965Z,79.4
2018-07-16T02:37:17.223Z,79.4
2018-07-16T02:38:16.485Z,79.4
2018-07-16T02:39:17.027Z,79.5
2018-07-16T02:40:16.300Z,79.3
2018-07-16T02:41:16.344Z,79.3
2018-07-16T02:42:16.608Z,79.2
2018-07-16T02:43:16.884Z,79.3
2018-07-16T02:44:17.448Z,79.2
2018-07-16T02:45:16.712Z,79.1
2018-07-16T02:46:16.971Z,79.0
2018-07-16T02:47:17.236Z,79.4
2018-07-16T02:48:16.525Z,79.4
2018-07-16T02:49:16.784Z,79.4
2018-07-16T02:50:17.041Z,78.8
2018-07-16T02:51:17.081Z,78.9
2018-07-16T02:52:16.341Z,79.0
2018-07-16T02:53:16.610Z,79.0
2018-07-16T02:54:16.885Z,79.1
2018-07-16T02:55:17.150Z,79.2
2018-07-16T02:56:16.480Z,78.9
2018-07-16T02:57:16.746Z,78.4
2018-07-16T02:58:17.015Z,78.3
2018-07-16T02:59:16.285Z,78.7
2018-07-16T03:00:16.554Z,78.7
2018-07-16T03:01:16.634Z,78.8
2018-07-16T03:02:16.906Z,77.9
2018-07-16T03:03:17.192Z,77.2
2018-07-16T03:04:16.450Z,77.4
2018-07-16T03:05:16.979Z,77.8
2018-07-16T03:06:17.245Z,78.3
2018-07-16T03:07:16.514Z,78.6
2018-07-16T03:08:16.777Z,78.4
2018-07-16T03:09:17.041Z,78.3
2018-07-16T03:10:16.316Z,78.2
2018-07-16T03:11:16.355Z,76.6
2018-07-16T03:12:16.683Z,77.1
2018-07-16T03:13:17.020Z,77.6
2018-07-16T03:14:16.283Z,76.9
2018-07-16T03:15:16.550Z,76.9
2018-07-16T03:16:16.815Z,77.4
2018-07-16T03:17:17.086Z,77.2
2018-07-16T03:18:16.383Z,77.5
2018-07-16T03:19:16.642Z,77.4
2018-07-16T03:20:16.909Z,77.7
2018-07-16T03:21:16.953Z,78.5
2018-07-16T03:22:17.228Z,78.8
2018-07-16T03:23:16.495Z,78.7
2018-07-16T03:24:16.764Z,78.9
2018-07-16T03:25:17.350Z,79.3
2018-07-16T03:26:16.620Z,79.2
2018-07-16T03:27:16.889Z,79.6
2018-07-16T03:28:17.148Z,79.8
2018-07-16T03:29:16.398Z,79.9
2018-07-16T03:30:16.676Z,80.1
2018-07-16T03:31:16.712Z,80.5
2018-07-16T03:32:16.986Z,80.6
2018-07-16T03:33:17.244Z,80.8
2018-07-16T03:34:16.518Z,81.0
2018-07-16T03:35:16.786Z,81.2
2018-07-16T03:36:17.052Z,81.5
2018-07-16T03:37:16.308Z,81.6
2018-07-16T03:38:16.571Z,81.8
2018-07-16T03:39:16.823Z,81.5
2018-07-16T03:40:17.085Z,82.1
2018-07-16T03:41:17.139Z,82.4
2018-07-16T03:42:16.405Z,82.6
2018-07-16T03:43:16.666Z,83.0
2018-07-16T03:44:16.924Z,83.5
2018-07-16T03:45:17.197Z,83.8
2018-07-16T03:46:16.459Z,83.9
2018-07-16T03:47:16.723Z,84.2
2018-07-16T03:48:16.988Z,84.2
2018-07-16T03:49:17.245Z,84.5
2018-07-16T03:50:16.510Z,84.9
2018-07-16T03:51:16.539Z,85.5
2018-07-16T03:52:16.800Z,85.6
2018-07-16T03:53:17.066Z,85.8
2018-07-16T03:54:16.403Z,85.6
2018-07-16T03:55:16.662Z,85.9
2018-07-16T03:56:16.929Z,84.7
2018-07-16T03:57:17.188Z,84.5
2018-07-16T03:58:16.446Z,85.3
2018-07-16T03:59:16.713Z,85.5
2018-07-16T04:00:16.981Z,85.3
2018-07-16T04:01:17.029Z,85.2
2018-07-16T04:02:16.285Z,85.6
2018-07-16T04:03:16.553Z,85.4
2018-07-16T04:04:16.809Z,85.2
2018-07-16T04:05:17.071Z,85.2
2018-07-16T04:06:16.328Z,84.9
2018-07-16T04:07:16.592Z,85.1
2018-07-16T04:08:16.852Z,84.9
2018-07-16T04:09:17.117Z,85.1
2018-07-16T04:10:16.387Z,84.8
2018-07-16T04:11:16.423Z,85.1
2018-07-16T04:12:16.683Z,85.0
2018-07-16T04:13:16.941Z,84.3
2018-07-16T04:14:17.223Z,84.6
2018-07-16T04:15:16.487Z,85.0
2018-07-16T04:16:16.744Z,84.8
2018-07-16T04:17:17.016Z,85.3
2018-07-16T04:18:16.271Z,84.7
2018-07-16T04:19:16.533Z,85.3
2018-07-16T04:20:16.796Z,85.5
2018-07-16T04:21:16.843Z,85.2
2018-07-16T04:22:17.112Z,84.8
2018-07-16T04:23:16.372Z,84.8
2018-07-16T04:24:16.634Z,84.9
2018-07-16T04:25:16.924Z,85.2
2018-07-16T04:26:17.207Z,85.1
2018-07-16T04:27:16.469Z,84.8
2018-07-16T04:28:16.728Z,85.0
2018-07-16T04:29:16.982Z,84.5
2018-07-16T04:30:17.249Z,84.3
2018-07-16T04:31:16.279Z,84.2
2018-07-16T04:32:16.545Z,84.5
2018-07-16T04:33:16.801Z,84.1
2018-07-16T04:34:17.063Z,84.2
2018-07-16T04:35:16.323Z,83.6
2018-07-16T04:36:16.590Z,83.4
2018-07-16T04:37:16.925Z,83.3
2018-07-16T04:38:17.184Z,83.8
2018-07-16T04:39:16.458Z,83.9
2018-07-16T04:40:16.728Z,84.3
2018-07-16T04:41:16.761Z,83.1
2018-07-16T04:42:17.025Z,82.6
2018-07-16T04:43:16.281Z,82.9
2018-07-16T04:44:16.549Z,83.2
2018-07-16T04:45:16.809Z,83.3
2018-07-16T04:46:17.065Z,83.4
2018-07-16T04:47:16.346Z,83.7
2018-07-16T04:48:16.600Z,83.6
2018-07-16T04:49:16.859Z,83.3
2018-07-16T04:50:17.127Z,83.6
2018-07-16T04:51:17.166Z,83.9
2018-07-16T04:52:16.483Z,84.0
2018-07-16T04:53:16.765Z,84.5
2018-07-16T04:54:17.028Z,84.0
2018-07-16T04:55:16.287Z,83.5
2018-07-16T04:56:16.896Z,83.8
2018-07-16T04:57:17.511Z,83.8
2018-07-16T04:58:16.771Z,84.0
2018-07-16T04:59:17.025Z,83.4
2018-07-16T05:00:16.295Z,82.9
2018-07-16T05:01:16.347Z,83.7
2018-07-16T05:02:16.607Z,84.0
2018-07-16T05:03:17.042Z,83.8
2018-07-16T05:04:16.371Z,83.6
2018-07-16T05:05:16.633Z,83.8
2018-07-16T05:06:16.891Z,83.8
2018-07-16T05:07:17.449Z,83.9
2018-07-16T05:08:16.705Z,83.5
2018-07-16T05:09:16.963Z,83.0
2018-07-16T05:10:17.231Z,83.1
2018-07-16T05:11:16.273Z,83.7
2018-07-16T05:12:16.526Z,84.8
2018-07-16T05:13:16.786Z,84.5
2018-07-16T05:14:17.048Z,84.3
2018-07-16T05:15:16.311Z,84.6
2018-07-16T05:16:16.566Z,84.7
2018-07-16T05:17:16.831Z,84.5
2018-07-16T05:18:17.220Z,84.3
2018-07-16T05:19:16.569Z,84.4
2018-07-16T05:20:16.826Z,84.6
2018-07-16T05:21:16.878Z,85.1
2018-07-16T05:22:17.149Z,85.2
2018-07-16T05:23:16.415Z,84.5
2018-07-16T05:24:16.674Z,85.3
2018-07-16T05:25:16.934Z,85.1
2018-07-16T05:26:17.206Z,84.8
2018-07-16T05:27:16.467Z,85.4
2018-07-16T05:28:16.726Z,85.2
2018-07-16T05:29:17.016Z,85.2
2018-07-16T05:30:16.308Z,85.1
2018-07-16T05:31:16.345Z,85.1
2018-07-16T05:32:16.974Z,85.2
2018-07-16T05:33:16.327Z,84.6
2018-07-16T05:34:16.594Z,84.7
2018-07-16T05:35:16.863Z,84.9
2018-07-16T05:36:17.143Z,84.8
2018-07-16T05:37:16.401Z,83.8
2018-07-16T05:38:17.022Z,83.4
2018-07-16T05:39:16.408Z,84.0
2018-07-16T05:40:16.676Z,83.9
2018-07-16T05:41:16.735Z,83.0
2018-07-16T05:42:16.992Z,82.8
2018-07-16T05:43:16.268Z,83.2
2018-07-16T05:44:16.544Z,84.0
2018-07-16T05:45:16.807Z,83.4
2018-07-16T05:46:17.080Z,82.8
2018-07-16T05:47:16.347Z,82.9
2018-07-16T05:48:16.622Z,83.3
2018-07-16T05:49:16.891Z,83.2
2018-07-16T05:50:17.147Z,83.2
2018-07-16T05:51:17.198Z,83.0
2018-07-16T05:52:16.461Z,82.8
2018-07-16T05:53:16.735Z,83.0
2018-07-16T05:54:17.004Z,82.8
2018-07-16T05:55:16.284Z,82.1
2018-07-16T05:56:16.544Z,82.5
2018-07-16T05:57:16.802Z,82.8
2018-07-16T05:58:17.141Z,82.9
2018-07-16T05:59:16.486Z,82.7
2018-07-16T06:00:16.772Z,82.7
2018-07-16T06:01:16.796Z,82.0
2018-07-16T06:02:17.060Z,82.5
2018-07-16T06:03:16.316Z,83.1
2018-07-16T06:04:16.587Z,82.7
2018-07-16T06:05:16.857Z,82.7
2018-07-16T06:06:17.116Z,83.2
2018-07-16T06:07:16.372Z,82.8
2018-07-16T06:08:16.634Z,82.8
2018-07-16T06:09:16.895Z,82.6
2018-07-16T06:10:17.152Z,82.9
2018-07-16T06:11:17.201Z,82.9
2018-07-16T06:12:16.459Z,81.6
2018-07-16T06:13:16.717Z,81.0
2018-07-16T06:14:16.971Z,81.0
2018-07-16T06:15:17.252Z,81.6
2018-07-16T06:16:16.513Z,82.0
2018-07-16T06:17:16.781Z,82.0
2018-07-16T06:18:17.042Z,81.7
2018-07-16T06:19:16.310Z,81.1
2018-07-16T06:20:16.584Z,80.9
2018-07-16T06:21:16.623Z,80.9
2018-07-16T06:22:16.885Z,80.9
2018-07-16T06:23:17.152Z,80.7
2018-07-16T06:24:16.413Z,80.4
2018-07-16T06:25:16.727Z,79.7
2018-07-16T06:26:16.992Z,79.1
2018-07-16T06:27:16.251Z,79.9
2018-07-16T06:28:16.518Z,80.0
2018-07-16T06:29:16.776Z,79.6
2018-07-16T06:30:17.043Z,79.9
2018-07-16T06:31:17.099Z,80.3
2018-07-16T06:32:16.364Z,79.4
2018-07-16T06:33:16.622Z,79.4
2018-07-16T06:34:16.883Z,79.5
2018-07-16T06:35:17.168Z,78.9
2018-07-16T06:36:16.425Z,79.0
2018-07-16T06:37:16.684Z,78.4
2018-07-16T06:38:16.947Z,78.0
2018-07-16T06:39:17.210Z,78.4
2018-07-16T06:40:16.929Z,79.0
2018-07-16T06:41:17.188Z,79.3
2018-07-16T06:42:16.492Z,79.0
2018-07-16T06:43:16.751Z,78.8
2018-07-16T06:44:17.013Z,79.5
2018-07-16T06:45:16.279Z,79.9
2018-07-16T06:46:16.527Z,80.0
2018-07-16T06:47:16.778Z,79.2
2018-07-16T06:48:17.044Z,80.3
2018-07-16T06:49:16.301Z,80.5
2018-07-16T06:50:16.558Z,80.4
2018-07-16T06:51:16.610Z,80.1
2018-07-16T06:52:16.868Z,80.3
2018-07-16T06:53:17.131Z,80.4
2018-07-16T06:54:16.391Z,80.4
2018-07-16T06:55:16.833Z,80.2
2018-07-16T06:56:16.266Z,79.9
2018-07-16T06:57:16.526Z,79.9
2018-07-16T06:58:16.792Z,80.1
2018-07-16T06:59:17.050Z,80.0
2018-07-16T07:00:16.321Z,79.5
2018-07-16T07:01:16.370Z,80.2
2018-07-16T07:02:16.726Z,79.1
2018-07-16T07:03:16.996Z,79.3
2018-07-16T07:04:16.251Z,79.3
2018-07-16T07:05:16.510Z,79.0
2018-07-16T07:06:16.777Z,79.3
2018-07-16T07:07:17.045Z,79.2
2018-07-16T07:08:16.313Z,77.4
2018-07-16T07:09:16.575Z,78.4
2018-07-16T07:10:16.848Z,78.5
2018-07-16T07:11:16.888Z,78.2
2018-07-16T07:12:17.161Z,78.4
2018-07-16T07:13:16.420Z,78.5
2018-07-16T07:14:16.682Z,77.7
2018-07-16T07:15:16.948Z,78.3
2018-07-16T07:16:17.223Z,78.1
2018-07-16T07:17:16.492Z,77.6
2018-07-16T07:18:16.931Z,77.9
2018-07-16T07:19:16.292Z,77.8
2018-07-16T07:20:16.562Z,77.3
2018-07-16T07:21:16.584Z,77.1
2018-07-16T07:22:16.856Z,77.2
2018-07-16T07:23:17.126Z,77.4
2018-07-16T07:24:16.385Z,77.3
2018-07-16T07:25:16.803Z,77.9
2018-07-16T07:26:17.068Z,78.3
2018-07-16T07:27:16.326Z,78.9
2018-07-16T07:28:16.581Z,78.9
2018-07-16T07:29:16.845Z,79.1
2018-07-16T07:30:17.123Z,79.4
2018-07-16T07:31:17.165Z,79.2
2018-07-16T07:32:16.430Z,79.4
2018-07-16T07:33:16.689Z,79.4
2018-07-16T07:34:17.270Z,79.5
2018-07-16T07:35:16.912Z,80.0
2018-07-16T07:36:17.205Z,79.8
2018-07-16T07:37:16.467Z,80.2
2018-07-16T07:38:16.726Z,80.1
2018-07-16T07:39:17.007Z,80.3
2018-07-16T07:40:16.273Z,80.3
2018-07-16T07:41:16.308Z,80.7
2018-07-16T07:42:16.577Z,81.1
2018-07-16T07:43:17.100Z,81.5
2018-07-16T07:44:16.357Z,81.3
2018-07-16T07:45:16.618Z,81.5
2018-07-16T07:46:16.885Z,80.8
2018-07-16T07:47:17.146Z,80.8
2018-07-16T07:48:16.416Z,80.9
2018-07-16T07:49:16.681Z,80.9
2018-07-16T07:50:16.949Z,80.7
2018-07-16T07:51:16.965Z,81.3
2018-07-16T07:52:17.228Z,80.8
2018-07-16T07:53:16.491Z,81.0
2018-07-16T07:54:17.066Z,81.0
2018-07-16T07:55:17.466Z,80.7
2018-07-16T07:56:17.022Z,80.7
2018-07-16T07:57:16.283Z,81.2
2018-07-16T07:58:16.544Z,80.2
2018-07-16T07:59:16.801Z,79.5
2018-07-16T08:00:17.076Z,80.1
2018-07-16T08:01:17.126Z,80.1
2018-07-16T08:02:16.389Z,80.3
2018-07-16T08:03:16.812Z,80.0
2018-07-16T08:04:17.149Z,79.9
2018-07-16T08:05:16.405Z,80.2
2018-07-16T08:06:16.663Z,78.5
2018-07-16T08:07:16.926Z,77.8
2018-07-16T08:08:17.191Z,77.6
2018-07-16T08:09:16.463Z,77.1
2018-07-16T08:10:16.764Z,77.4
2018-07-16T08:11:17.109Z,77.6
2018-07-16T08:12:16.388Z,77.4
2018-07-16T08:13:16.664Z,77.9
2018-07-16T08:14:16.945Z,77.4
2018-07-16T08:15:17.481Z,77.3
2018-07-16T08:16:17.150Z,77.5
2018-07-16T08:17:16.794Z,77.5
2018-07-16T08:18:17.087Z,77.6
2018-07-16T08:19:16.376Z,77.6
2018-07-16T08:20:16.705Z,77.5
2018-07-16T08:21:16.716Z,77.3
2018-07-16T08:22:16.998Z,76.9
2018-07-16T08:23:16.278Z,76.3
2018-07-16T08:24:17.115Z,76.5
2018-07-16T08:25:16.913Z,75.6
2018-07-16T08:26:17.197Z,75.5
2018-07-16T08:27:16.469Z,75.4
2018-07-16T08:28:16.975Z,75.1
2018-07-16T08:29:16.364Z,75.0
2018-07-16T08:30:16.676Z,75.4
2018-07-16T08:31:16.678Z,75.6
2018-07-16T08:32:17.487Z,76.0
2018-07-16T08:33:16.355Z,76.2
2018-07-16T08:34:16.650Z,76.2
2018-07-16T08:35:16.938Z,75.3
2018-07-16T08:36:17.223Z,75.2
2018-07-16T08:37:16.531Z,74.7
2018-07-16T08:38:16.807Z,74.7
2018-07-16T08:39:17.104Z,74.4
2018-07-16T08:40:16.871Z,73.1
2018-07-16T08:41:16.413Z,71.6
2018-07-16T08:42:16.687Z,71.0
2018-07-16T08:43:16.976Z,71.0
2018-07-16T08:44:17.262Z,71.7
2018-07-16T08:45:16.557Z,71.6
2018-07-16T08:46:16.999Z,70.6
2018-07-16T08:47:16.269Z,71.2
2018-07-16T08:48:16.540Z,71.1
2018-07-16T08:49:16.803Z,71.0
2018-07-16T08:50:17.086Z,71.0
2018-07-16T08:51:17.130Z,70.2
2018-07-16T08:52:16.392Z,69.1
2018-07-16T08:53:16.651Z,68.7
2018-07-16T08:54:16.907Z,68.5
2018-07-16T08:55:17.177Z,68.1
2018-07-16T08:56:16.446Z,68.1
2018-07-16T08:57:16.716Z,66.9
2018-07-16T08:58:16.980Z,66.8
2018-07-16T08:59:17.432Z,66.1
2018-07-16T09:00:16.733Z,65.6
2018-07-16T09:01:16.777Z,65.3
2018-07-16T09:02:17.039Z,67.5
2018-07-16T09:03:16.294Z,67.6
2018-07-16T09:04:16.562Z,68.1
2018-07-16T09:05:16.829Z,67.5
2018-07-16T09:06:17.115Z,67.4
2018-07-16T09:07:16.619Z,67.0
2018-07-16T09:08:16.961Z,66.6
2018-07-16T09:09:17.219Z,64.0
2018-07-16T09:10:16.485Z,65.0
2018-07-16T09:11:16.728Z,64.6
2018-07-16T09:12:17.066Z,65.3
2018-07-16T09:13:16.630Z,65.5
2018-07-16T09:14:16.987Z,64.4
2018-07-16T09:15:17.253Z,61.7
2018-07-16T09:16:16.512Z,62.8
2018-07-16T09:17:16.776Z,63.8
2018-07-16T09:18:17.034Z,62.5
2018-07-16T09:19:16.446Z,61.6
2018-07-16T09:20:16.792Z,60.6
2018-07-16T09:21:16.815Z,59.7
2018-07-16T09:22:17.070Z,59.5
2018-07-16T09:23:16.330Z,59.3
2018-07-16T09:24:16.596Z,59.4
2018-07-16T09:25:16.861Z,60.1
2018-07-16T09:26:17.125Z,59.1
2018-07-16T09:27:16.388Z,58.2
2018-07-16T09:28:16.645Z,57.6
2018-07-16T09:29:16.902Z,57.3
2018-07-16T09:30:17.189Z,59.1
2018-07-16T09:31:17.209Z,59.8
2018-07-16T09:32:16.486Z,60.5
2018-07-16T09:33:16.742Z,61.3
2018-07-16T09:34:17.013Z,59.7
2018-07-16T09:35:16.294Z,58.4
2018-07-16T09:36:16.557Z,58.8
2018-07-16T09:37:16.826Z,59.6
2018-07-16T09:38:17.083Z,59.2
2018-07-16T09:39:16.345Z,60.1
2018-07-16T09:40:16.616Z,59.9
2018-07-16T09:41:16.672Z,58.8
2018-07-16T09:42:16.940Z,58.0
2018-07-16T09:43:17.210Z,58.1
2018-07-16T09:44:16.541Z,55.2
2018-07-16T09:45:16.812Z,55.1
2018-07-16T09:46:17.077Z,54.9
2018-07-16T09:47:16.333Z,52.7
2018-07-16T09:48:16.599Z,50.4
2018-07-16T09:49:16.856Z,49.1
2018-07-16T09:50:17.136Z,51.3
2018-07-16T09:51:17.202Z,51.9
2018-07-16T09:52:16.467Z,54.5
2018-07-16T09:53:16.739Z,54.3
2018-07-16T09:54:16.992Z,53.4
2018-07-16T09:55:16.266Z,52.9
2018-07-16T09:56:16.602Z,52.1
2018-07-16T09:57:16.867Z,51.9
2018-07-16T09:58:17.137Z,51.5
2018-07-16T09:59:16.399Z,50.3
2018-07-16T10:00:16.685Z,50.6
2018-07-16T10:01:16.705Z,53.1
2018-07-16T10:02:16.968Z,53.1
2018-07-16T10:03:17.232Z,56.1
2018-07-16T10:04:16.499Z,56.5
2018-07-16T10:05:16.759Z,54.9
2018-07-16T10:06:17.019Z,55.1
2018-07-16T10:07:16.290Z,52.2
2018-07-16T10:08:16.620Z,52.7
2018-07-16T10:09:16.896Z,51.9
2018-07-16T10:10:17.158Z,52.2
2018-07-16T10:11:17.201Z,52.5
2018-07-16T10:12:16.452Z,53.3
2018-07-16T10:13:16.713Z,53.7
2018-07-16T10:14:16.979Z,53.4
2018-07-16T10:15:17.242Z,53.7
2018-07-16T10:16:16.508Z,52.9
2018-07-16T10:17:16.764Z,53.3
2018-07-16T10:18:17.189Z,55.7
2018-07-16T10:19:16.448Z,55.7
2018-07-16T10:20:16.951Z,56.3
2018-07-16T10:21:16.748Z,59.7
2018-07-16T10:22:17.002Z,60.0
2018-07-16T10:23:16.260Z,59.1
2018-07-16T10:24:16.535Z,58.8
2018-07-16T10:25:16.789Z,58.6
2018-07-16T10:26:17.063Z,58.2
2018-07-16T10:27:16.321Z,59.4
2018-07-16T10:28:16.583Z,59.5
2018-07-16T10:29:16.851Z,58.4
2018-07-16T10:30:17.124Z,59.8
2018-07-16T10:31:17.169Z,58.7
2018-07-16T10:32:16.435Z,58.4
2018-07-16T10:33:16.709Z,59.1
2018-07-16T10:34:16.992Z,59.4
2018-07-16T10:35:17.246Z,59.5
2018-07-16T10:36:16.503Z,60.7
2018-07-16T10:37:16.766Z,60.4
2018-07-16T10:38:17.030Z,60.3
2018-07-16T10:39:16.397Z,60.5
2018-07-16T10:40:16.675Z,60.3
2018-07-16T10:41:16.723Z,60.3
2018-07-16T10:42:16.989Z,60.3
2018-07-16T10:43:16.247Z,60.5
2018-07-16T10:44:16.508Z,60.7
2018-07-16T10:45:16.782Z,60.8
2018-07-16T10:46:17.041Z,60.5
2018-07-16T10:47:16.312Z,61.3
2018-07-16T10:48:16.570Z,60.7
2018-07-16T10:49:16.828Z,59.9
2018-07-16T10:50:17.092Z,59.7
2018-07-16T10:51:17.168Z,60.0
2018-07-16T10:52:16.425Z,60.5
2018-07-16T10:53:16.682Z,62.7
2018-07-16T10:54:16.946Z,63.2
2018-07-16T10:55:17.382Z,62.9
2018-07-16T10:56:16.719Z,62.2
2018-07-16T10:57:16.985Z,62.3
2018-07-16T10:58:17.240Z,62.8
2018-07-16T10:59:16.506Z,62.3
2018-07-16T11:00:16.777Z,61.1
2018-07-16T11:01:16.824Z,61.2
2018-07-16T11:02:17.086Z,60.8
2018-07-16T11:03:16.344Z,60.9
2018-07-16T11:04:16.600Z,60.1
2018-07-16T11:05:16.957Z,58.9
2018-07-16T11:06:17.243Z,59.1
2018-07-16T11:07:16.511Z,59.3
2018-07-16T11:08:16.767Z,59.1
2018-07-16T11:09:17.044Z,58.4
2018-07-16T11:10:16.321Z,59.0
2018-07-16T11:11:16.352Z,60.3
2018-07-16T11:12:16.609Z,61.1
2018-07-16T11:13:16.868Z,60.8
2018-07-16T11:14:17.119Z,60.1
2018-07-16T11:15:16.377Z,59.3
2018-07-16T11:16:16.643Z,58.2
2018-07-16T11:17:16.904Z,59.4
2018-07-16T11:18:17.158Z,59.4
2018-07-16T11:19:16.428Z,57.7
2018-07-16T11:20:16.693Z,57.2
2018-07-16T11:21:16.725Z,57.7
2018-07-16T11:22:16.977Z,55.6
2018-07-16T11:23:17.234Z,54.8
2018-07-16T11:24:16.500Z,56.2
2018-07-16T11:25:16.764Z,57.5
2018-07-16T11:26:17.021Z,57.1
2018-07-16T11:27:16.283Z,56.1
2018-07-16T11:28:16.549Z,52.5
2018-07-16T11:29:16.807Z,51.5
2018-07-16T11:30:17.072Z,50.9
2018-07-16T11:31:17.127Z,48.8
2018-07-16T11:32:16.390Z,48.9
2018-07-16T11:33:16.648Z,49.1
2018-07-16T11:34:16.905Z,48.1
2018-07-16T11:35:17.291Z,48.3
2018-07-16T11:36:16.562Z,47.6
2018-07-16T11:37:16.835Z,46.8
2018-07-16T11:38:17.094Z,46.8
2018-07-16T11:39:16.367Z,44.7
2018-07-16T11:40:16.645Z,46.3
2018-07-16T11:41:16.696Z,46.0
2018-07-16T11:42:16.954Z,45.7
2018-07-16T11:43:17.218Z,45.9
2018-07-16T11:44:16.473Z,46.9
2018-07-16T11:45:16.724Z,48.1
2018-07-16T11:46:17.180Z,47.2
2018-07-16T11:47:16.489Z,47.2
2018-07-16T11:48:16.752Z,43.7
2018-07-16T11:49:17.014Z,42.5
2018-07-16T11:50:16.268Z,43.6
2018-07-16T11:51:16.329Z,42.7
2018-07-16T11:52:16.748Z,44.2
2018-07-16T11:53:17.066Z,45.5
2018-07-16T11:54:16.320Z,44.9
2018-07-16T11:55:16.593Z,44.2
2018-07-16T11:56:16.853Z,45.6
2018-07-16T11:57:17.121Z,46.6
2018-07-16T11:58:16.381Z,48.2
2018-07-16T11:59:16.768Z,48.2
2018-07-16T12:00:17.035Z,48.8
2018-07-16T12:01:17.090Z,48.0
2018-07-16T12:02:16.343Z,47.9
2018-07-16T12:03:16.612Z,47.1
2018-07-16T12:04:16.873Z,46.7
2018-07-16T12:05:17.244Z,46.6
2018-07-16T12:06:16.533Z,46.6
2018-07-16T12:07:16.788Z,44.8
2018-07-16T12:08:17.059Z,44.0
2018-07-16T12:09:16.317Z,45.2
2018-07-16T12:10:16.593Z,46.0
2018-07-16T12:11:16.650Z,45.8
2018-07-16T12:12:17.028Z,46.1
2018-07-16T12:13:16.299Z,45.2
2018-07-16T12:14:16.553Z,45.3
2018-07-16T12:15:16.809Z,44.7
2018-07-16T12:16:17.067Z,45.6
2018-07-16T12:17:16.337Z,45.9
2018-07-16T12:18:16.592Z,46.6
2018-07-16T12:19:16.855Z,47.2
2018-07-16T12:20:17.120Z,46.6
2018-07-16T12:21:17.174Z,45.8
2018-07-16T12:22:16.439Z,44.7
2018-07-16T12:23:16.704Z,43.5
2018-07-16T12:24:16.958Z,41.5
2018-07-16T12:25:17.216Z,41.5
2018-07-16T12:26:16.475Z,44.0
2018-07-16T12:27:16.747Z,43.5
2018-07-16T12:28:17.018Z,43.4
2018-07-16T12:29:16.281Z,43.4
2018-07-16T12:30:16.561Z,43.3
2018-07-16T12:31:16.602Z,43.7
2018-07-16T12:32:16.869Z,43.9
2018-07-16T12:33:17.141Z,43.9
2018-07-16T12:34:16.397Z,43.2
2018-07-16T12:35:16.656Z,41.2
2018-07-16T12:36:16.919Z,41.2
2018-07-16T12:37:17.180Z,39.8
2018-07-16T12:38:16.446Z,40.1
2018-07-16T12:39:16.703Z,40.7
2018-07-16T12:40:16.973Z,41.5
2018-07-16T12:41:17.363Z,42.3
2018-07-16T12:42:16.640Z,42.4
2018-07-16T12:43:16.910Z,42.0
2018-07-16T12:44:17.173Z,41.5
2018-07-16T12:45:16.435Z,41.1
2018-07-16T12:46:16.700Z,41.5
2018-07-16T12:47:16.964Z,40.8
2018-07-16T12:48:17.435Z,41.1
2018-07-16T12:49:16.781Z,41.6
2018-07-16T12:50:17.052Z,41.2
2018-07-16T12:51:17.098Z,41.3
2018-07-16T12:52:16.364Z,40.8
2018-07-16T12:53:16.620Z,41.2
2018-07-16T12:54:16.878Z,41.0
2018-07-16T12:55:17.151Z,42.2
2018-07-16T12:56:16.412Z,42.2
2018-07-16T12:57:16.946Z,42.1
2018-07-16T12:58:16.308Z,41.9
2018-07-16T12:59:16.570Z,42.3
2018-07-16T13:00:16.838Z,42.6
2018-07-16T13:01:16.896Z,42.8
2018-07-16T13:02:17.488Z,43.2
2018-07-16T13:03:16.746Z,42.2
2018-07-16T13:04:17.016Z,42.4
2018-07-16T13:05:16.279Z,42.0
2018-07-16T13:06:16.741Z,42.7
2018-07-16T13:07:17.095Z,41.3
2018-07-16T13:08:16.354Z,41.4
2018-07-16T13:09:16.626Z,41.4
2018-07-16T13:10:16.885Z,40.6
2018-07-16T13:11:16.945Z,40.5
2018-07-16T13:12:17.205Z,40.7
2018-07-16T13:13:16.461Z,40.9
2018-07-16T13:14:16.716Z,40.8
2018-07-16T13:15:16.989Z,40.8
2018-07-16T13:16:17.256Z,41.2
2018-07-16T13:17:16.513Z,41.4
2018-07-16T13:18:16.788Z,42.1